createdAt,value
2022-10-07T00:13:15.421Z,995.2
2022-10-07T00:27:48.165Z,995.2
2022-10-07T00:42:17.599Z,995
2022-10-07T00:56:49.684Z,994.9
2022-10-07T01:11:21.809Z,994.7
2022-10-07T01:25:55.245Z,994.5
2022-10-07T01:40:33.444Z,994.3
2022-10-07T01:55:00.711Z,994.2
2022-10-07T02:09:32.371Z,993.9
2022-10-07T02:24:03.794Z,993.9
2022-10-07T02:38:36.636Z,993.7
2022-10-07T02:53:08.704Z,993.6
2022-10-07T03:07:40.597Z,993.5
2022-10-07T03:22:11.401Z,993.4
2022-10-07T03:36:42.663Z,993.3
2022-10-07T03:51:14.164Z,993.3
2022-10-07T04:05:46.561Z,993.2
2022-10-07T04:20:17.711Z,993
2022-10-07T04:34:49.879Z,993
2022-10-07T04:49:22.493Z,992.9
2022-10-07T05:03:54.373Z,992.8
2022-10-07T05:18:26.719Z,992.7
2022-10-07T05:32:59.463Z,992.7
2022-10-07T05:47:31.228Z,992.6
2022-10-07T06:02:03.923Z,992.5
2022-10-07T06:16:35.698Z,992.3
2022-10-07T06:31:08.728Z,992.3
2022-10-07T06:45:41.689Z,992.3
2022-10-07T07:00:14.867Z,992.4
2022-10-07T07:14:46.091Z,992.5
2022-10-07T07:29:20.408Z,992.4
2022-10-07T07:43:54.315Z,992.4
2022-10-07T07:58:27.786Z,992.4
2022-10-07T08:13:04.274Z,992.2
2022-10-07T08:27:53.337Z,992.1
2022-10-07T08:42:28.953Z,991.9
2022-10-07T08:56:58.745Z,991.9
2022-10-07T09:11:37.569Z,991.7
2022-10-07T09:26:16.819Z,991.6
2022-10-07T09:40:52.223Z,991.5
2022-10-07T09:55:18.086Z,991.4
2022-10-07T10:09:51.806Z,991.2
2022-10-07T10:24:26.655Z,991.1
2022-10-07T10:38:59.827Z,990.8
2022-10-07T10:53:33.013Z,990.6
2022-10-07T11:08:05.421Z,990.4
2022-10-07T11:22:37.709Z,990.1
2022-10-07T11:37:11.078Z,989.8
2022-10-07T11:51:43.192Z,989.4
2022-10-07T12:06:16.115Z,989.2
2022-10-07T12:20:49.459Z,989
2022-10-07T12:35:19.884Z,988.8
2022-10-07T12:49:57.794Z,988.6
2022-10-07T13:04:26.896Z,988.3
2022-10-07T13:18:57.663Z,988.1
2022-10-07T13:33:29.938Z,987.9
2022-10-07T13:48:02.456Z,987.7
2022-10-07T14:02:44.472Z,987.5
2022-10-07T14:17:11.497Z,987.2
2022-10-07T14:31:42.314Z,987
2022-10-07T14:46:14.629Z,986.9
2022-10-07T15:00:47.419Z,986.7
2022-10-07T15:15:19.574Z,986.5
2022-10-07T15:29:52.652Z,986.4
2022-10-07T15:44:23.444Z,986.2
2022-10-07T15:58:56.273Z,986.1
2022-10-07T16:13:28.376Z,986.1
2022-10-07T16:28:00.864Z,986
2022-10-07T16:42:31.131Z,985.9
2022-10-07T16:57:05.233Z,985.9
2022-10-07T17:11:35.430Z,985.8
2022-10-07T17:26:06.911Z,985.8
2022-10-07T17:40:42.562Z,985.7
2022-10-07T17:55:12.851Z,985.7
2022-10-07T18:09:44.866Z,985.7
2022-10-07T18:24:15.844Z,985.7
2022-10-07T18:38:47.308Z,985.6
2022-10-07T18:53:19.889Z,985.6
2022-10-07T19:07:52.016Z,985.6
2022-10-07T19:22:25.059Z,985.6
2022-10-07T19:36:57.064Z,985.6
2022-10-07T19:51:34.933Z,985.6
2022-10-07T20:06:04.300Z,985.6
2022-10-07T20:20:34.797Z,985.5
2022-10-07T20:35:12.078Z,985.7
2022-10-07T20:49:37.474Z,985.6
2022-10-07T21:04:09.417Z,985.5
2022-10-07T21:18:41.120Z,985.5
2022-10-07T21:33:11.754Z,985.4
2022-10-07T21:47:43.230Z,985.4
2022-10-07T22:02:14.457Z,985.3
2022-10-07T22:16:43.570Z,985.3
2022-10-07T22:31:14.532Z,985.3
2022-10-07T22:45:45.614Z,985.2
2022-10-07T23:00:16.096Z,985.1
2022-10-07T23:14:48.219Z,985
2022-10-07T23:29:20.125Z,985
2022-10-07T23:58:25.154Z,984.8
